Time;durP1;ratioP1;P1;durP2;ratioP2;P2;SDS_P1;SDS_P2;PMS_P1;PMS_P2;Temp;Humidity;BMP_temperature;BMP_pressure;BME280_temperature;BME280_humidity;BME280_pressure;Samples;Min_cycle;Max_cycle;Signal;HPM_P1;HPM_P2
2021/08/03 00:00:42;;;;;;;17.92;11.73;;;;;;;22.40;60.62;100292.03;1674291;85;21162;-69
2021/08/03 00:03:16;;;;;;;14.45;11.80;;;;;;;22.36;60.87;100294.80;1673880;85;21339;-69
2021/08/03 00:05:51;;;;;;;14.23;11.78;;;;;;;22.34;61.24;100298.20;1674270;85;22148;-69
2021/08/03 00:08:27;;;;;;;19.98;12.03;;;;;;;22.26;61.54;100287.25;1676226;85;21301;-69
2021/08/03 00:11:02;;;;;;;20.15;12.80;;;;;;;22.21;61.64;100295.05;1674300;85;21316;-70
2021/08/03 00:13:36;;;;;;;19.23;12.80;;;;;;;22.13;61.56;100293.47;1652469;86;21201;-68
2021/08/03 00:16:11;;;;;;;20.08;13.72;;;;;;;22.04;61.35;100292.03;1673959;85;21284;-69
2021/08/03 00:18:45;;;;;;;21.00;13.65;;;;;;;21.96;61.43;100296.78;1673598;85;21201;-67
2021/08/03 00:21:18;;;;;;;19.80;13.60;;;;;;;21.89;61.45;100301.31;1674611;85;21260;-67
2021/08/03 00:23:51;;;;;;;22.35;13.83;;;;;;;21.84;61.41;100305.93;1673796;85;21288;-68
2021/08/03 00:26:25;;;;;;;17.42;14.13;;;;;;;21.82;61.15;100305.80;1674207;85;21305;-67
2021/08/03 00:28:58;;;;;;;18.90;14.10;;;;;;;21.79;60.92;100301.70;1673831;85;21308;-68
2021/08/03 00:31:32;;;;;;;17.45;13.93;;;;;;;21.74;60.70;100300.17;1675903;85;21270;-68
2021/08/03 00:34:05;;;;;;;17.07;14.25;;;;;;;21.69;60.25;100303.14;1674093;85;21299;-67
2021/08/03 00:36:38;;;;;;;15.63;12.75;;;;;;;21.63;60.39;100303.47;1673829;85;21296;-69
2021/08/03 00:39:12;;;;;;;21.35;13.75;;;;;;;21.61;60.51;100295.38;1674109;85;21332;-69
2021/08/03 00:41:49;;;;;;;22.87;14.18;;;;;;;21.58;60.83;100297.94;1674595;85;21284;-67
2021/08/03 00:44:43;;;;;;;16.82;13.50;;;;;;;21.55;61.23;100288.19;1635972;87;21775;-68
2021/08/03 00:47:20;;;;;;;20.20;13.85;;;;;;;21.48;61.39;100304.19;1628534;88;21339;-67
2021/08/03 00:49:56;;;;;;;24.85;15.13;;;;;;;21.41;61.69;100307.36;1642838;86;21312;-68
2021/08/03 00:52:29;;;;;;;18.65;13.75;;;;;;;21.34;61.92;100298.55;1629212;88;21295;-68
2021/08/03 00:55:04;;;;;;;21.55;14.47;;;;;;;21.34;61.92;100298.55;1623778;87;21329;-69
2021/08/03 00:57:39;;;;;;;20.05;14.50;;;;;;;21.33;61.62;100299.05;1629471;88;21300;-67
2021/08/03 01:00:13;;;;;;;19.48;14.83;;;;;;;21.32;61.58;100308.09;1642439;87;21213;-66
2021/08/03 01:02:46;;;;;;;19.60;14.00;;;;;;;21.30;61.77;100306.66;1629222;88;21836;-67
2021/08/03 01:05:21;;;;;;;19.57;15.15;;;;;;;21.29;62.02;100315.65;1642594;87;21304;-67
2021/08/03 01:08:14;;;;;;;17.70;13.88;;;;;;;21.28;62.34;100322.81;1628710;88;21312;-67
2021/08/03 01:11:01;;;;;;;21.10;14.78;;;;;;;21.28;62.61;100330.00;1642341;87;21320;-67
2021/08/03 01:14:01;;;;;;;20.77;14.40;;;;;;;21.27;62.84;100324.36;1643693;87;21713;-67
2021/08/03 01:16:51;;;;;;;27.20;16.05;;;;;;;21.25;63.00;100327.73;1642063;87;21285;-67
2021/08/03 01:19:40;;;;;;;19.30;15.40;;;;;;;21.21;63.34;100329.15;1616476;87;21291;-68
2021/08/03 01:22:52;;;;;;;18.85;14.50;;;;;;;21.17;63.54;100327.42;1644056;87;21819;-68
2021/08/03 01:25:57;;;;;;;21.42;15.03;;;;;;;21.14;63.75;100328.31;1628328;88;21259;-69
2021/08/03 01:28:38;;;;;;;20.90;15.00;;;;;;;21.13;64.09;100332.02;1642783;87;21816;-68
2021/08/03 01:31:26;;;;;;;19.40;15.30;;;;;;;21.13;64.33;100333.35;1628042;88;21909;-67
2021/08/03 01:34:14;;;;;;;23.07;15.55;;;;;;;21.14;64.37;100329.14;1643532;87;21173;-67
2021/08/03 01:36:56;;;;;;;20.17;14.68;;;;;;;21.13;64.33;100336.84;1628245;88;21408;-67
2021/08/03 01:39:41;;;;;;;22.55;15.28;;;;;;;21.10;64.29;100347.06;1643194;87;21296;-69
2021/08/03 01:42:15;;;;;;;18.27;14.60;;;;;;;21.07;64.32;100340.30;1609079;88;21285;-67
2021/08/03 01:44:48;;;;;;;21.55;14.70;;;;;;;21.05;64.40;100338.34;1645529;87;21328;-67
2021/08/03 01:47:25;;;;;;;22.98;14.58;;;;;;;21.03;64.35;100340.36;1629344;88;21363;-68
2021/08/03 01:49:59;;;;;;;18.48;14.30;;;;;;;21.03;64.33;100344.86;1643504;87;21209;-68
2021/08/03 01:52:33;;;;;;;20.40;13.60;;;;;;;21.03;64.39;100342.20;1628926;88;21514;-68
2021/08/03 01:55:10;;;;;;;19.80;13.28;;;;;;;21.03;64.53;100346.19;1643198;87;21304;-68
2021/08/03 01:57:45;;;;;;;19.35;13.58;;;;;;;21.00;64.48;100346.59;1654605;87;21276;-68
2021/08/03 02:00:21;;;;;;;19.15;13.72;;;;;;;20.98;64.34;100356.11;1651792;87;21212;-68
2021/08/03 02:02:59;;;;;;;19.70;14.40;;;;;;;20.99;64.18;100351.11;1661651;85;21229;-68
2021/08/03 02:05:32;;;;;;;23.77;13.50;;;;;;;21.03;64.09;100348.85;1683994;85;21241;-68
2021/08/03 02:08:07;;;;;;;21.37;13.72;;;;;;;21.07;63.93;100344.28;1684460;85;21316;-68
2021/08/03 02:10:41;;;;;;;19.30;13.50;;;;;;;21.12;63.76;100338.36;1684133;85;21189;-68
2021/08/03 02:13:15;;;;;;;;;;;;;;;21.13;63.64;100334.18;1687069;85;21240;-67
2021/08/03 02:15:48;;;;;;;22.77;14.10;;;;;;;21.10;63.69;100341.23;1684044;85;20678;-68
2021/08/03 02:18:21;;;;;;;;;;;;;;;21.05;63.82;100337.02;1686758;85;21291;-68
2021/08/03 02:20:56;;;;;;;20.75;13.88;;;;;;;21.06;63.86;100335.19;1683884;85;20202;-68
2021/08/03 02:23:30;;;;;;;17.10;12.70;;;;;;;21.06;63.91;100332.52;1682668;85;21279;-68
2021/08/03 02:26:05;;;;;;;19.65;14.87;;;;;;;21.12;63.91;100336.52;1683503;85;21240;-68
2021/08/03 02:28:39;;;;;;;19.87;12.98;;;;;;;21.18;63.85;100333.57;1683969;85;21315;-68
2021/08/03 02:31:30;;;;;;;;;;;;;;;21.22;63.79;100340.12;1686835;85;21303;-67
2021/08/03 02:34:14;;;;;;;18.73;13.70;;;;;;;21.28;63.85;100343.31;1685629;85;20226;-68
2021/08/03 02:36:50;;;;;;;22.58;13.90;;;;;;;21.34;63.92;100349.15;1682931;85;21351;-68
2021/08/03 02:39:23;;;;;;;25.15;14.85;;;;;;;21.42;63.81;100343.64;1683333;85;21264;-68
2021/08/03 02:41:57;;;;;;;27.87;15.95;;;;;;;21.48;63.52;100346.80;1683380;85;21330;-68
2021/08/03 02:44:30;;;;;;;25.55;15.25;;;;;;;21.57;63.55;100339.41;1684175;85;21272;-69
2021/08/03 02:47:17;;;;;;;21.65;14.10;;;;;;;21.64;63.42;100342.39;1683401;85;21359;-68
2021/08/03 02:49:49;;;;;;;20.88;13.80;;;;;;;21.71;63.38;100341.08;1680573;85;21233;-68
2021/08/03 02:52:25;;;;;;;21.25;14.03;;;;;;;21.79;63.28;100342.18;1683364;85;21310;-68
2021/08/03 02:55:17;;;;;;;23.70;15.10;;;;;;;21.86;63.14;100351.84;1684428;85;21164;-69
2021/08/03 02:57:59;;;;;;;21.87;14.33;;;;;;;21.95;63.13;100373.77;1678565;85;21233;-68
2021/08/03 03:00:36;;;;;;;18.95;13.48;;;;;;;22.06;62.86;100359.83;1674460;85;21859;-68
2021/08/03 03:03:17;;;;;;;20.62;13.98;;;;;;;22.15;62.54;100357.23;1674442;85;21167;-68
2021/08/03 03:05:55;;;;;;;18.02;13.35;;;;;;;22.25;62.25;100358.14;1675003;85;21771;-69
2021/08/03 03:08:30;;;;;;;22.07;14.53;;;;;;;22.35;61.77;100356.69;1674778;85;21323;-71
2021/08/03 03:11:06;;;;;;;24.63;14.15;;;;;;;22.46;61.31;100362.70;1674674;85;21277;-69
2021/08/03 03:14:00;;;;;;;22.40;15.83;;;;;;;22.58;60.96;100374.36;1651939;86;21673;-70
2021/08/03 03:16:40;;;;;;;22.82;14.25;;;;;;;22.73;60.96;100358.94;1673049;85;21768;-69
2021/08/03 03:19:15;;;;;;;18.75;13.95;;;;;;;22.85;61.02;100365.77;1653158;86;21169;-69
2021/08/03 03:21:49;;;;;;;23.77;14.28;;;;;;;22.95;61.04;100358.63;1655813;86;21343;-68
2021/08/03 03:24:22;;;;;;;;;;;;;;;23.01;60.78;100367.11;1684857;85;21319;-68
2021/08/03 03:26:55;;;;;;;19.75;13.35;;;;;;;23.06;60.75;100374.78;1674022;86;20234;-68
2021/08/03 03:29:28;;;;;;;19.15;13.48;;;;;;;23.09;60.91;100369.02;1683721;85;21204;-68
2021/08/03 03:32:02;;;;;;;24.00;14.83;;;;;;;23.15;60.87;100365.99;1684041;85;21279;-68
2021/08/03 03:34:36;;;;;;;24.32;13.93;;;;;;;23.21;60.73;100373.16;1674603;85;21284;-67
2021/08/03 03:37:09;;;;;;;26.82;13.93;;;;;;;23.27;60.47;100385.13;1653507;86;21193;-68
2021/08/03 03:39:43;;;;;;;29.77;13.93;;;;;;;23.35;60.50;100370.22;1674285;85;21291;-68
2021/08/03 03:42:16;;;;;;;25.30;13.98;;;;;;;23.43;60.28;100374.46;1674066;85;21295;-68
2021/08/03 03:44:50;;;;;;;22.48;14.55;;;;;;;23.49;60.22;100367.44;1675024;85;21343;-68
2021/08/03 03:47:30;;;;;;;24.65;15.60;;;;;;;23.52;60.14;100371.03;1674571;85;21307;-67
2021/08/03 03:50:21;;;;;;;30.97;14.28;;;;;;;23.55;60.00;100374.06;1673257;85;21193;-68
2021/08/03 03:53:15;;;;;;;30.97;15.40;;;;;;;23.62;60.16;100378.05;1673957;85;21284;-68
2021/08/03 03:55:52;;;;;;;21.75;13.55;;;;;;;23.66;60.16;100372.56;1674295;85;21186;-69
2021/08/03 03:58:27;;;;;;;24.72;14.55;;;;;;;23.70;59.81;100373.75;1673333;85;21299;-71
2021/08/03 04:01:00;;;;;;;21.27;14.33;;;;;;;23.71;59.61;100376.22;1673681;85;21173;-70
2021/08/03 04:03:36;;;;;;;18.57;13.13;;;;;;;23.74;59.70;100381.66;1673600;85;21308;-67
2021/08/03 04:06:10;;;;;;;19.57;13.60;;;;;;;23.78;59.56;100393.53;1652142;85;21555;-70
2021/08/03 04:08:43;;;;;;;31.02;13.83;;;;;;;23.83;59.66;100385.17;1651410;86;21598;-69
2021/08/03 04:11:18;;;;;;;24.18;14.10;;;;;;;23.95;59.05;100386.06;1672889;85;21217;-70
2021/08/03 04:13:54;;;;;;;26.20;13.60;;;;;;;24.13;58.29;100377.30;1672909;85;21260;-71
2021/08/03 04:16:27;;;;;;;23.65;12.98;;;;;;;24.39;57.71;100392.25;1674346;85;21278;-74
2021/08/03 04:19:01;;;;;;;27.80;13.62;;;;;;;24.92;56.96;100388.46;1673556;85;21295;-74
2021/08/03 04:21:34;;;;;;;31.73;14.07;;;;;;;25.66;55.57;100398.23;1673780;85;21324;-75
2021/08/03 04:24:07;;;;;;;26.68;13.20;;;;;;;26.31;53.59;100392.29;1673698;85;21288;-75
2021/08/03 04:26:41;;;;;;;20.37;13.45;;;;;;;26.88;51.84;100384.36;1674466;85;21169;-74
2021/08/03 04:29:14;;;;;;;20.02;12.37;;;;;;;27.24;49.91;100386.66;1673382;85;21228;-74
2021/08/03 04:31:47;;;;;;;25.27;12.63;;;;;;;27.41;49.41;100396.13;1674153;85;21335;-75
2021/08/03 04:34:20;;;;;;;23.52;12.98;;;;;;;27.55;49.01;100388.86;1677003;85;21838;-74
2021/08/03 04:36:53;;;;;;;30.50;14.10;;;;;;;27.66;48.29;100390.64;1674625;85;21317;-76
2021/08/03 04:39:26;;;;;;;23.32;12.82;;;;;;;27.77;48.12;100392.98;1673450;85;21190;-75
2021/08/03 04:41:59;;;;;;;21.68;12.55;;;;;;;27.99;47.47;100393.88;1673807;85;21328;-76
2021/08/03 04:44:32;;;;;;;41.05;22.62;;;;;;;28.17;46.91;100396.31;1673473;85;21224;-76
2021/08/03 04:50:38;;;;;;;61.90;32.63;;;;;;;28.44;45.84;100395.08;1667952;86;21343;-76
2021/08/03 04:53:40;;;;;;;61.42;26.95;;;;;;;28.58;45.88;100399.03;1668362;85;21994;-76
2021/08/03 05:00:22;;;;;;;50.33;26.50;;;;;;;28.82;45.19;100405.01;1662716;85;22033;-72
2021/08/03 05:02:55;;;;;;;43.05;21.20;;;;;;;28.83;45.27;100393.17;1666782;85;21332;-71
2021/08/03 05:09:39;;;;;;;31.05;15.65;;;;;;;28.83;44.71;100396.66;1677351;85;21776;-77
2021/08/03 05:12:12;;;;;;;38.78;15.45;;;;;;;28.97;45.13;100403.28;1667660;85;21342;-73
2021/08/03 05:14:45;;;;;;;27.65;13.45;;;;;;;29.45;45.08;100399.77;1678064;85;21378;-73
2021/08/03 05:21:30;;;;;;;27.75;13.48;;;;;;;31.03;42.38;100394.58;1625981;87;21997;-70
2021/08/03 05:28:13;;;;;;;24.67;12.70;;;;;;;33.19;38.20;100388.57;1623202;86;21152;-69
2021/08/03 05:30:47;;;;;;;15.68;11.28;;;;;;;34.56;35.81;100388.18;1673850;85;21551;-72
2021/08/03 05:33:21;;;;;;;23.32;12.25;;;;;;;35.35;34.48;100390.09;1666606;85;22018;-72
2021/08/03 05:35:54;;;;;;;19.80;11.90;;;;;;;36.06;32.83;100382.91;1664997;86;21245;-72
2021/08/03 05:38:29;;;;;;;21.12;12.50;;;;;;;36.63;31.79;100385.61;1678150;85;21181;-74
2021/08/03 05:41:02;;;;;;;23.07;12.70;;;;;;;36.91;31.05;100388.53;1677651;85;21848;-71
2021/08/03 05:47:45;;;;;;;25.48;12.60;;;;;;;37.37;29.87;100382.86;1627009;87;21168;-70
2021/08/03 05:50:19;;;;;;;24.05;12.20;;;;;;;38.28;28.71;100387.64;1675053;85;21350;-71
2021/08/03 05:52:52;;;;;;;20.97;12.53;;;;;;;38.84;28.19;100396.95;1677221;85;21378;-71
2021/08/03 05:55:25;;;;;;;22.40;11.90;;;;;;;39.22;27.37;100389.76;1651897;85;21348;-75
2021/08/03 05:57:59;;;;;;;21.85;11.48;;;;;;;39.67;26.84;100387.50;1650701;86;21342;-72
2021/08/03 06:00:32;;;;;;;27.98;12.05;;;;;;;40.22;25.94;100385.53;1649828;86;21686;-72
2021/08/03 06:03:07;;;;;;;31.90;12.30;;;;;;;40.71;25.38;100389.49;1649078;85;21339;-72
2021/08/03 06:05:41;;;;;;;18.57;11.85;;;;;;;41.06;24.71;100388.69;1648337;87;21363;-71
2021/08/03 06:08:14;;;;;;;28.32;11.73;;;;;;;41.49;24.13;100386.94;1648637;87;21335;-71
2021/08/03 06:10:48;;;;;;;18.02;9.83;;;;;;;41.98;23.47;100390.08;1653316;86;21327;-72
2021/08/03 06:13:24;;;;;;;17.32;9.95;;;;;;;42.41;22.94;100391.50;1630270;87;21354;-75
2021/08/03 06:16:00;;;;;;;17.75;9.75;;;;;;;42.79;22.26;100400.19;1649869;86;21241;-73
2021/08/03 06:18:38;;;;;;;17.80;10.32;;;;;;;43.16;21.80;100399.55;1649176;87;21500;-72
2021/08/03 06:21:14;;;;;;;21.25;10.48;;;;;;;43.29;21.92;100407.45;1649783;86;21772;-73
2021/08/03 06:23:49;;;;;;;25.12;11.93;;;;;;;42.99;22.36;100399.84;1650956;87;21829;-74
2021/08/03 06:26:22;;;;;;;21.20;11.00;;;;;;;42.56;22.88;100399.90;1650480;86;22125;-75
2021/08/03 06:28:56;;;;;;;16.20;9.88;;;;;;;42.55;22.84;100398.28;1652134;87;21228;-74
2021/08/03 06:31:29;;;;;;;22.60;9.68;;;;;;;42.72;22.72;100395.28;1649698;86;21368;-74
2021/08/03 06:34:02;;;;;;;18.67;9.88;;;;;;;42.92;22.36;100391.37;1653193;85;21356;-74
2021/08/03 06:36:35;;;;;;;16.37;9.58;;;;;;;42.83;22.22;100395.58;1650081;87;22197;-74
2021/08/03 06:39:10;;;;;;;14.87;9.70;;;;;;;42.41;22.25;100390.12;1651553;86;21583;-72
2021/08/03 06:41:44;;;;;;;17.55;9.58;;;;;;;41.78;22.77;100384.08;1649490;87;21362;-72
2021/08/03 06:44:23;;;;;;;11.70;9.60;;;;;;;41.27;23.29;100385.94;1650786;87;22019;-73
2021/08/03 06:46:57;;;;;;;16.40;9.70;;;;;;;40.91;23.83;100379.11;1651699;86;21332;-74
2021/08/03 06:49:33;;;;;;;17.05;10.88;;;;;;;40.68;24.26;100386.03;1650830;87;21316;-73
2021/08/03 06:52:06;;;;;;;16.70;11.38;;;;;;;40.38;24.68;100386.35;1653368;86;21343;-72
2021/08/03 06:54:40;;;;;;;21.35;10.65;;;;;;;40.29;24.88;100380.33;1653809;85;21268;-77
2021/08/03 06:57:13;;;;;;;20.50;10.55;;;;;;;40.38;24.75;100378.94;1652531;86;21312;-75
2021/08/03 06:59:54;;;;;;;19.62;10.72;;;;;;;40.36;25.27;100388.84;1653568;86;21336;-77
2021/08/03 07:02:34;;;;;;;21.80;10.13;;;;;;;40.34;25.77;100386.23;1650478;86;21197;-75
2021/08/03 07:05:27;;;;;;;17.10;10.40;;;;;;;40.60;25.51;100387.47;1648217;85;21321;-72
2021/08/03 07:08:01;;;;;;;24.82;14.85;;;;;;;40.75;25.07;100395.10;1651879;85;21332;-74
2021/08/03 07:10:34;;;;;;;20.57;12.47;;;;;;;40.73;25.16;100394.64;1651029;86;21903;-75
2021/08/03 07:13:08;;;;;;;15.70;9.75;;;;;;;40.62;25.42;100400.30;1649261;86;21237;-74
2021/08/03 07:15:40;;;;;;;17.15;10.20;;;;;;;40.41;25.88;100398.05;1651539;86;22134;-75
2021/08/03 07:18:14;;;;;;;18.42;10.63;;;;;;;40.15;26.34;100400.92;1650697;87;21216;-72
2021/08/03 07:20:48;;;;;;;18.30;10.65;;;;;;;39.89;26.73;100394.69;1651569;85;21507;-72
2021/08/03 07:23:22;;;;;;;21.17;13.90;;;;;;;39.88;26.73;100406.22;1652830;85;22024;-73
2021/08/03 07:25:57;;;;;;;16.20;10.35;;;;;;;40.17;26.54;100395.91;1649855;86;21900;-74
2021/08/03 07:28:30;;;;;;;17.50;9.68;;;;;;;41.10;25.49;100402.56;1651118;86;21315;-70
2021/08/03 07:31:03;;;;;;;19.52;9.78;;;;;;;42.31;24.19;100394.14;1648518;86;21603;-70
2021/08/03 07:33:37;;;;;;;23.92;9.93;;;;;;;42.97;23.32;100403.52;1648347;86;21234;-74
2021/08/03 07:36:13;;;;;;;25.02;9.88;;;;;;;42.93;22.73;100402.59;1647427;86;21217;-70
2021/08/03 07:38:46;;;;;;;18.05;9.25;;;;;;;42.39;23.30;100403.42;1648939;86;21496;-69
2021/08/03 07:41:19;;;;;;;13.95;9.00;;;;;;;41.69;24.13;100404.56;1649809;86;21324;-69
2021/08/03 07:43:53;;;;;;;19.12;9.03;;;;;;;41.16;24.81;100401.20;1648495;87;21347;-76
2021/08/03 07:46:26;;;;;;;23.95;10.60;;;;;;;40.62;25.55;100401.10;1653793;86;21328;-73
2021/08/03 07:49:00;;;;;;;19.80;11.55;;;;;;;40.63;25.29;100398.58;1650722;86;21189;-71
2021/08/03 07:51:33;;;;;;;12.20;8.38;;;;;;;40.98;24.73;100387.64;1649267;86;21339;-73
2021/08/03 07:54:07;;;;;;;13.48;9.90;;;;;;;41.82;23.75;100385.03;1651698;87;21473;-76
2021/08/03 07:56:40;;;;;;;14.58;9.33;;;;;;;42.66;22.55;100389.77;1650532;86;21328;-72
2021/08/03 07:59:21;;;;;;;15.20;9.10;;;;;;;42.83;22.16;100388.13;1650333;86;21578;-75
2021/08/03 08:01:55;;;;;;;12.45;8.33;;;;;;;43.19;21.97;100386.43;1620397;87;21648;-74
2021/08/03 08:04:29;;;;;;;17.90;8.45;;;;;;;43.76;21.86;100391.02;1650435;86;21401;-72
2021/08/03 08:07:02;;;;;;;15.75;8.05;;;;;;;44.43;20.91;100383.63;1649918;85;21209;-72
2021/08/03 08:13:44;;;;;;;13.93;7.78;;;;;;;45.48;19.37;100385.95;1650731;87;21327;-72
2021/08/03 08:16:18;;;;;;;13.53;7.17;;;;;;;46.12;18.90;100381.59;1649439;86;21265;-73
2021/08/03 08:18:51;;;;;;;13.00;8.25;;;;;;;46.54;18.61;100380.88;1650963;86;21323;-72
2021/08/03 08:21:24;;;;;;;13.03;8.70;;;;;;;46.88;18.42;100388.69;1651040;86;21883;-71
2021/08/03 08:23:57;;;;;;;15.68;8.70;;;;;;;47.20;18.28;100390.47;1650716;87;21328;-75
2021/08/03 08:26:31;;;;;;;16.93;8.28;;;;;;;47.39;18.18;100388.31;1651495;86;21995;-75
2021/08/03 08:29:05;;;;;;;16.37;8.20;;;;;;;47.40;17.61;100394.66;1651385;87;21979;-72
2021/08/03 08:31:39;;;;;;;11.88;7.87;;;;;;;47.38;17.66;100392.28;1651340;86;21274;-77
2021/08/03 08:34:12;;;;;;;11.65;9.48;;;;;;;47.45;17.67;100387.42;1632860;87;21323;-74
2021/08/03 08:36:45;;;;;;;12.03;7.85;;;;;;;47.52;17.26;100392.23;1640196;85;21375;-78
2021/08/03 08:39:18;;;;;;;17.50;7.90;;;;;;;47.61;17.09;100394.10;1610214;89;21803;-76
2021/08/03 08:41:51;;;;;;;15.05;7.33;;;;;;;47.54;17.11;100396.81;1640166;86;21332;-76
2021/08/03 08:44:24;;;;;;;18.27;7.65;;;;;;;47.38;17.03;100397.83;1642420;87;21293;-77
2021/08/03 08:46:58;;;;;;;13.65;7.97;;;;;;;47.24;17.42;100404.61;1611546;89;21214;-75
2021/08/03 08:49:31;;;;;;;10.85;7.10;;;;;;;46.84;18.11;100400.29;1641502;86;21351;-74
2021/08/03 08:52:05;;;;;;;12.45;6.58;;;;;;;46.30;18.55;100406.77;1607997;89;21215;-76
2021/08/03 08:54:38;;;;;;;12.78;6.72;;;;;;;45.59;18.92;100419.92;1643332;86;21815;-74
2021/08/03 08:57:11;;;;;;;15.70;6.87;;;;;;;44.80;19.71;100420.23;1642525;86;21834;-73
2021/08/03 08:59:44;;;;;;;12.73;7.60;;;;;;;44.18;20.24;100423.87;1640525;87;21221;-75
2021/08/03 09:02:17;;;;;;;9.90;6.92;;;;;;;43.75;20.95;100436.32;1610448;87;21316;-74
2021/08/03 09:04:54;;;;;;;9.23;6.97;;;;;;;43.59;21.27;100425.78;1609830;88;21332;-73
2021/08/03 09:07:27;;;;;;;11.45;6.05;;;;;;;43.59;21.21;100420.27;1620119;87;21347;-74
2021/08/03 09:10:00;;;;;;;10.30;6.25;;;;;;;43.68;21.05;100418.20;1673601;85;21292;-77
2021/08/03 09:12:36;;;;;;;12.95;6.90;;;;;;;43.72;21.16;100414.95;1632888;87;21296;-69
2021/08/03 09:15:21;;;;;;;13.45;5.72;;;;;;;43.45;21.31;100416.55;1613513;88;21233;-69
2021/08/03 09:22:28;;;;;;;11.55;6.72;;;;;;;42.66;22.47;100416.48;1615412;88;21146;-69
2021/08/03 09:25:15;;;;;;;13.15;6.70;;;;;;;42.26;22.86;100417.19;1611792;88;21343;-69
2021/08/03 09:31:58;;;;;;;20.40;5.75;;;;;;;42.26;23.15;100421.31;1618583;87;21186;-68
2021/08/03 09:38:43;;;;;;;10.23;5.35;;;;;;;41.94;23.36;100424.11;1671632;83;21957;-71
2021/08/03 09:41:16;;;;;;;15.40;6.55;;;;;;;41.54;23.66;100425.22;1672192;85;22197;-70
2021/08/03 09:56:31;;;;;;;10.87;6.03;;;;;;;39.97;25.46;100417.95;1669547;85;21558;-70
2021/08/03 10:03:14;;;;;;;9.80;6.42;;;;;;;39.48;26.34;100428.11;1670546;84;21188;-69
2021/08/03 10:09:57;;;;;;;17.92;5.78;;;;;;;39.28;26.08;100440.52;1673784;85;21185;-70
2021/08/03 10:12:31;;;;;;;13.72;6.25;;;;;;;38.85;26.24;100439.64;1672148;85;21326;-69
2021/08/03 10:19:25;;;;;;;15.28;5.83;;;;;;;38.03;27.15;100438.05;1671813;83;21995;-72
2021/08/03 10:26:16;;;;;;;13.13;6.62;;;;;;;36.99;29.24;100441.07;1663024;86;21919;-71
2021/08/03 10:28:50;;;;;;;13.88;6.62;;;;;;;36.52;30.04;100436.83;1670835;85;21288;-72
2021/08/03 10:31:41;;;;;;;15.40;6.40;;;;;;;36.43;30.69;100432.61;1671506;85;21221;-68
2021/08/03 10:38:33;;;;;;;12.68;6.25;;;;;;;36.63;30.89;100435.53;1665512;86;21170;-72
2021/08/03 10:41:16;;;;;;;12.28;6.03;;;;;;;36.84;30.69;100427.72;1669517;86;21451;-71
2021/08/03 10:43:52;;;;;;;7.28;5.92;;;;;;;36.85;31.03;100428.77;1671934;85;21311;-69
2021/08/03 10:46:30;;;;;;;11.60;5.97;;;;;;;36.73;31.08;100435.33;1671994;85;21201;-72
2021/08/03 10:49:03;;;;;;;19.42;7.28;;;;;;;36.53;31.57;100430.27;1674278;85;21228;-73
2021/08/03 10:51:41;;;;;;;10.08;5.90;;;;;;;36.30;31.92;100421.13;1675906;85;21280;-75
2021/08/03 10:58:28;;;;;;;14.53;7.35;;;;;;;35.69;32.75;100411.05;1676818;85;21248;-74
2021/08/03 11:01:02;;;;;;;12.07;6.83;;;;;;;35.36;33.61;100407.48;1621793;87;21388;-71
2021/08/03 11:03:39;;;;;;;9.55;6.20;;;;;;;35.29;34.13;100404.87;1672293;85;21496;-73
2021/08/03 11:06:22;;;;;;;9.88;6.62;;;;;;;35.12;34.67;100398.04;1671532;85;21326;-72
2021/08/03 11:08:57;;;;;;;12.37;7.15;;;;;;;34.93;35.24;100394.47;1674226;85;21468;-73
2021/08/03 11:11:31;;;;;;;12.18;9.55;;;;;;;34.85;35.73;100410.63;1678412;85;21241;-73
2021/08/03 11:14:09;;;;;;;14.47;6.53;;;;;;;34.79;36.09;100410.44;1685337;85;21336;-74
2021/08/03 11:16:45;;;;;;;11.48;5.40;;;;;;;34.69;35.76;100418.73;1682657;85;21236;-75
2021/08/03 11:23:35;;;;;;;15.10;4.05;;;;;;;34.62;34.06;100427.25;1682986;85;21271;-72
2021/08/03 11:26:08;;;;;;;7.25;3.58;;;;;;;34.69;32.84;100428.25;1660122;85;22121;-70
2021/08/03 11:28:42;;;;;;;8.00;4.70;;;;;;;34.69;32.46;100429.61;1680016;85;21478;-71
2021/08/03 11:31:17;;;;;;;8.48;4.42;;;;;;;34.60;32.54;100429.99;1654913;85;21232;-72
2021/08/03 11:33:57;;;;;;;;;;;;;;;34.53;32.90;100442.59;1683649;85;22119;-72
2021/08/03 11:36:31;;;;;;;9.68;4.03;;;;;;;34.47;32.83;100441.80;1681101;85;20583;-72
2021/08/03 11:39:24;;;;;;;6.25;3.50;;;;;;;34.40;33.02;100433.17;1682244;85;21205;-74
2021/08/03 11:41:57;;;;;;;7.28;3.70;;;;;;;34.33;32.75;100439.50;1682575;85;21291;-73
2021/08/03 11:44:30;;;;;;;8.40;3.87;;;;;;;34.21;33.06;100435.01;1684291;85;21323;-72
2021/08/03 11:47:13;;;;;;;9.60;4.05;;;;;;;34.11;33.06;100445.97;1682800;85;21331;-73
2021/08/03 11:49:48;;;;;;;6.42;3.40;;;;;;;33.91;33.25;100446.93;1682627;85;21452;-71
2021/08/03 11:52:23;;;;;;;7.17;3.70;;;;;;;33.73;33.70;100453.61;1682831;85;21473;-68
2021/08/03 11:54:59;;;;;;;8.63;4.45;;;;;;;33.60;34.48;100463.23;1682786;85;21371;-70
2021/08/03 11:57:51;;;;;;;7.60;3.83;;;;;;;33.42;34.79;100467.92;1681603;85;21327;-69
2021/08/03 12:00:24;;;;;;;9.20;3.65;;;;;;;33.27;35.06;100459.86;1683439;85;21877;-72
2021/08/03 12:07:07;;;;;;;7.92;3.42;;;;;;;32.97;35.02;100438.30;1682002;85;21442;-73
2021/08/03 12:09:43;;;;;;;7.55;3.62;;;;;;;32.83;35.84;100435.94;1686977;85;21184;-73
2021/08/03 12:12:19;;;;;;;15.00;7.67;;;;;;;32.72;35.98;100437.86;1656163;85;21331;-71
2021/08/03 12:15:07;;;;;;;14.00;7.47;;;;;;;32.56;36.27;100440.37;1674421;85;21303;-69
2021/08/03 12:17:40;;;;;;;9.68;5.35;;;;;;;32.43;36.53;100447.70;1671771;85;21240;-71
2021/08/03 12:20:23;;;;;;;6.17;4.03;;;;;;;32.36;36.86;100436.34;1672357;85;22115;-69
2021/08/03 12:22:58;;;;;;;7.92;3.65;;;;;;;32.30;37.19;100427.95;1674236;85;21513;-69
2021/08/03 12:25:34;;;;;;;7.40;3.70;;;;;;;32.22;36.83;100426.60;1672902;84;21792;-70
2021/08/03 12:28:07;;;;;;;7.20;3.80;;;;;;;32.11;37.10;100429.07;1654753;85;21366;-71
2021/08/03 12:30:41;;;;;;;9.80;3.75;;;;;;;32.02;37.32;100435.31;1675091;85;21359;-71
2021/08/03 12:33:16;;;;;;;;;;;;;;;31.83;37.33;100435.84;1679849;85;21316;-73
2021/08/03 12:36:08;;;;;;;5.47;3.50;;;;;;;31.68;37.63;100439.08;1674903;85;20381;-72
2021/08/03 12:38:47;;;;;;;;;;;;;;;31.55;38.00;100434.20;1675695;85;21418;-71
2021/08/03 12:41:22;;;;;;;10.32;5.05;;;;;;;31.44;37.93;100431.20;1673889;85;20648;-73
2021/08/03 12:43:56;;;;;;;7.28;3.70;;;;;;;31.35;38.25;100419.25;1673200;85;21217;-72
2021/08/03 12:46:38;;;;;;;;;;;;;;;31.27;38.21;100416.53;1676354;85;21383;-70
2021/08/03 12:49:11;;;;;;;5.45;3.67;;;;;;;31.14;38.24;100408.39;1672435;85;20700;-75
2021/08/03 12:51:44;;;;;;;6.17;3.98;;;;;;;30.98;38.37;100414.84;1674016;85;21343;-71
2021/08/03 12:54:20;;;;;;;8.20;3.35;;;;;;;30.85;38.65;100421.27;1674170;85;21328;-72
2021/08/03 12:56:57;;;;;;;10.35;3.50;;;;;;;30.69;38.81;100411.48;1675719;85;21422;-70
2021/08/03 13:03:42;;;;;;;10.10;3.72;;;;;;;30.37;39.55;100404.30;1674264;85;21677;-72
2021/08/03 13:06:15;;;;;;;;;;;;;;;30.13;39.95;100392.77;1677205;85;21354;-70
2021/08/03 13:08:49;;;;;;;10.53;3.67;;;;;;;30.00;40.51;100398.08;1673678;85;20251;-77
2021/08/03 13:11:21;;;;;;;8.50;3.65;;;;;;;29.86;40.90;100415.27;1677636;85;21150;-76
2021/08/03 13:13:56;;;;;;;8.85;3.70;;;;;;;29.75;41.77;100422.98;1673191;85;21224;-75
2021/08/03 13:16:29;;;;;;;7.67;3.40;;;;;;;29.62;42.29;100421.23;1670478;86;22059;-74
2021/08/03 13:19:04;;;;;;;5.05;3.45;;;;;;;29.48;43.28;100428.11;1672025;85;21173;-79
2021/08/03 13:21:39;;;;;;;10.20;3.62;;;;;;;29.31;43.86;100431.73;1676647;86;21229;-76
2021/08/03 13:24:12;;;;;;;9.95;4.37;;;;;;;29.20;44.29;100436.76;1655632;86;21289;-79
2021/08/03 13:26:45;;;;;;;11.22;5.45;;;;;;;29.13;44.41;100425.33;1670824;86;22015;-76
2021/08/03 13:29:19;;;;;;;17.05;5.80;;;;;;;29.09;44.54;100428.78;1669540;86;21311;-76